sensor_id;sensor_type;location;lat;lon;timestamp;temperature;humidity
25410;DHT22;13339;50.840;4.346;2023-04-20T00:02:20;11.30;99.90
25410;DHT22;13339;50.840;4.346;2023-04-20T00:04:46;11.20;99.90
25410;DHT22;13339;50.840;4.346;2023-04-20T00:07:11;11.10;99.90
25410;DHT22;13339;50.840;4.346;2023-04-20T00:09:37;11.10;99.90
25410;DHT22;13339;50.840;4.346;2023-04-20T00:12:03;11.00;99.90
25410;DHT22;13339;50.840;4.346;2023-04-20T00:14:28;10.80;99.90
25410;DHT22;13339;50.840;4.346;2023-04-20T00:16:54;10.90;99.90
25410;DHT22;13339;50.840;4.346;2023-04-20T00:19:20;11.00;99.90
25410;DHT22;13339;50.840;4.346;2023-04-20T00:21:46;10.90;99.90
25410;DHT22;13339;50.840;4.346;2023-04-20T00:24:12;11.00;99.90
25410;DHT22;13339;50.840;4.346;2023-04-20T00:26:38;11.00;99.90
25410;DHT22;13339;50.840;4.346;2023-04-20T00:29:03;10.80;99.90
25410;DHT22;13339;50.840;4.346;2023-04-20T00:31:30;10.80;99.90
25410;DHT22;13339;50.840;4.346;2023-04-20T00:33:56;10.70;99.90
25410;DHT22;13339;50.840;4.346;2023-04-20T00:36:21;10.60;99.90
25410;DHT22;13339;50.840;4.346;2023-04-20T00:38:47;10.60;99.90
25410;DHT22;13339;50.840;4.346;2023-04-20T00:41:12;10.60;99.90
25410;DHT22;13339;50.840;4.346;2023-04-20T00:43:51;10.50;99.90
25410;DHT22;13339;50.840;4.346;2023-04-20T00:46:19;10.50;99.90
25410;DHT22;13339;50.840;4.346;2023-04-20T00:48:45;10.40;99.90
25410;DHT22;13339;50.840;4.346;2023-04-20T00:51:11;10.40;99.90
25410;DHT22;13339;50.840;4.346;2023-04-20T00:53:38;10.30;99.90
25410;DHT22;13339;50.840;4.346;2023-04-20T00:56:04;10.30;99.90
25410;DHT22;13339;50.840;4.346;2023-04-20T00:58:30;10.40;99.90
25410;DHT22;13339;50.840;4.346;2023-04-20T01:00:56;10.40;99.90
25410;DHT22;13339;50.840;4.346;2023-04-20T01:03:21;10.40;99.90
25410;DHT22;13339;50.840;4.346;2023-04-20T01:05:47;10.30;99.90
25410;DHT22;13339;50.840;4.346;2023-04-20T01:08:13;10.30;99.90
25410;DHT22;13339;50.840;4.346;2023-04-20T01:10:38;10.40;99.90
25410;DHT22;13339;50.840;4.346;2023-04-20T01:13:04;10.30;99.90
25410;DHT22;13339;50.840;4.346;2023-04-20T01:15:29;10.40;99.90
25410;DHT22;13339;50.840;4.346;2023-04-20T01:17:55;10.50;99.90
25410;DHT22;13339;50.840;4.346;2023-04-20T01:20:22;10.60;99.90
25410;DHT22;13339;50.840;4.346;2023-04-20T01:22:50;10.70;99.90
25410;DHT22;13339;50.840;4.346;2023-04-20T01:25:18;10.40;99.90
25410;DHT22;13339;50.840;4.346;2023-04-20T01:27:44;10.50;99.90
25410;DHT22;13339;50.840;4.346;2023-04-20T01:30:10;10.40;99.90
25410;DHT22;13339;50.840;4.346;2023-04-20T01:32:37;10.30;99.90
25410;DHT22;13339;50.840;4.346;2023-04-20T01:35:02;10.30;99.90
25410;DHT22;13339;50.840;4.346;2023-04-20T01:37:28;10.30;99.90
25410;DHT22;13339;50.840;4.346;2023-04-20T01:39:54;10.40;99.90
25410;DHT22;13339;50.840;4.346;2023-04-20T01:42:20;10.20;99.90
25410;DHT22;13339;50.840;4.346;2023-04-20T01:44:46;10.00;99.90
25410;DHT22;13339;50.840;4.346;2023-04-20T01:47:12;9.80;99.90
25410;DHT22;13339;50.840;4.346;2023-04-20T01:49:37;9.80;99.90
25410;DHT22;13339;50.840;4.346;2023-04-20T01:52:03;9.90;99.90
25410;DHT22;13339;50.840;4.346;2023-04-20T01:54:28;9.90;99.90
25410;DHT22;13339;50.840;4.346;2023-04-20T01:56:54;9.70;99.90
25410;DHT22;13339;50.840;4.346;2023-04-20T01:59:20;9.60;99.90
25410;DHT22;13339;50.840;4.346;2023-04-20T02:01:46;9.50;99.90
25410;DHT22;13339;50.840;4.346;2023-04-20T02:04:11;9.40;99.90
25410;DHT22;13339;50.840;4.346;2023-04-20T02:06:37;9.40;99.90
25410;DHT22;13339;50.840;4.346;2023-04-20T02:09:02;9.50;99.90
25410;DHT22;13339;50.840;4.346;2023-04-20T02:11:28;9.50;99.90
25410;DHT22;13339;50.840;4.346;2023-04-20T02:13:53;9.50;99.90
25410;DHT22;13339;50.840;4.346;2023-04-20T02:16:19;9.60;99.90
25410;DHT22;13339;50.840;4.346;2023-04-20T02:18:46;9.50;99.90
25410;DHT22;13339;50.840;4.346;2023-04-20T02:21:11;9.50;99.90
25410;DHT22;13339;50.840;4.346;2023-04-20T02:23:37;9.20;99.90
25410;DHT22;13339;50.840;4.346;2023-04-20T02:26:03;9.10;99.90
25410;DHT22;13339;50.840;4.346;2023-04-20T02:28:28;9.20;99.90
25410;DHT22;13339;50.840;4.346;2023-04-20T02:30:54;9.20;99.90
25410;DHT22;13339;50.840;4.346;2023-04-20T02:33:20;9.10;99.90
25410;DHT22;13339;50.840;4.346;2023-04-20T02:35:46;9.10;99.90
25410;DHT22;13339;50.840;4.346;2023-04-20T02:38:12;9.20;99.90
25410;DHT22;13339;50.840;4.346;2023-04-20T02:40:37;9.20;99.90
25410;DHT22;13339;50.840;4.346;2023-04-20T02:43:03;9.30;99.90
25410;DHT22;13339;50.840;4.346;2023-04-20T02:45:29;9.30;99.90
25410;DHT22;13339;50.840;4.346;2023-04-20T02:47:55;9.40;99.90
25410;DHT22;13339;50.840;4.346;2023-04-20T02:50:21;9.30;99.90
25410;DHT22;13339;50.840;4.346;2023-04-20T02:52:47;9.20;99.90
25410;DHT22;13339;50.840;4.346;2023-04-20T02:55:13;9.10;99.90
25410;DHT22;13339;50.840;4.346;2023-04-20T02:57:38;9.20;99.90
25410;DHT22;13339;50.840;4.346;2023-04-20T03:00:04;9.20;99.90
25410;DHT22;13339;50.840;4.346;2023-04-20T03:02:33;9.40;99.90
25410;DHT22;13339;50.840;4.346;2023-04-20T03:04:58;9.10;99.90
25410;DHT22;13339;50.840;4.346;2023-04-20T03:07:24;9.30;99.90
25410;DHT22;13339;50.840;4.346;2023-04-20T03:09:49;9.20;99.90
25410;DHT22;13339;50.840;4.346;2023-04-20T03:12:15;8.90;99.90
25410;DHT22;13339;50.840;4.346;2023-04-20T03:14:41;8.90;99.90
25410;DHT22;13339;50.840;4.346;2023-04-20T03:17:07;8.90;99.90
25410;DHT22;13339;50.840;4.346;2023-04-20T03:19:32;8.80;99.90
25410;DHT22;13339;50.840;4.346;2023-04-20T03:21:58;8.90;99.90
25410;DHT22;13339;50.840;4.346;2023-04-20T03:24:23;9.00;99.90
25410;DHT22;13339;50.840;4.346;2023-04-20T03:26:49;9.00;99.90
25410;DHT22;13339;50.840;4.346;2023-04-20T03:29:15;8.80;99.90
25410;DHT22;13339;50.840;4.346;2023-04-20T03:31:40;8.90;99.90
25410;DHT22;13339;50.840;4.346;2023-04-20T03:34:06;8.80;99.90
25410;DHT22;13339;50.840;4.346;2023-04-20T03:36:31;8.60;99.90
25410;DHT22;13339;50.840;4.346;2023-04-20T03:38:57;8.60;99.90
25410;DHT22;13339;50.840;4.346;2023-04-20T03:41:23;8.60;99.90
25410;DHT22;13339;50.840;4.346;2023-04-20T03:43:49;8.50;99.90
25410;DHT22;13339;50.840;4.346;2023-04-20T03:46:14;8.50;99.90
25410;DHT22;13339;50.840;4.346;2023-04-20T03:48:40;8.50;99.90
25410;DHT22;13339;50.840;4.346;2023-04-20T03:51:06;8.50;99.90
25410;DHT22;13339;50.840;4.346;2023-04-20T03:53:31;8.50;99.90
25410;DHT22;13339;50.840;4.346;2023-04-20T03:55:57;8.50;99.90
25410;DHT22;13339;50.840;4.346;2023-04-20T03:58:22;8.50;99.90
25410;DHT22;13339;50.840;4.346;2023-04-20T04:00:48;8.40;99.90
25410;DHT22;13339;50.840;4.346;2023-04-20T04:03:14;8.50;99.90
25410;DHT22;13339;50.840;4.346;2023-04-20T04:05:40;8.40;99.90
25410;DHT22;13339;50.840;4.346;2023-04-20T04:08:05;8.50;99.90
25410;DHT22;13339;50.840;4.346;2023-04-20T04:10:31;8.50;99.90
25410;DHT22;13339;50.840;4.346;2023-04-20T04:12:57;8.60;99.90
25410;DHT22;13339;50.840;4.346;2023-04-20T04:15:22;8.60;99.90
25410;DHT22;13339;50.840;4.346;2023-04-20T04:17:48;8.50;99.90
25410;DHT22;13339;50.840;4.346;2023-04-20T04:20:13;8.40;99.90
25410;DHT22;13339;50.840;4.346;2023-04-20T04:22:40;8.30;99.90
25410;DHT22;13339;50.840;4.346;2023-04-20T04:25:06;8.40;99.90
25410;DHT22;13339;50.840;4.346;2023-04-20T04:27:32;8.30;99.90
25410;DHT22;13339;50.840;4.346;2023-04-20T04:29:59;8.30;99.90
25410;DHT22;13339;50.840;4.346;2023-04-20T04:32:25;8.10;99.90
25410;DHT22;13339;50.840;4.346;2023-04-20T04:34:51;8.10;99.90
25410;DHT22;13339;50.840;4.346;2023-04-20T04:37:17;8.10;99.90
25410;DHT22;13339;50.840;4.346;2023-04-20T04:39:44;8.20;99.90
25410;DHT22;13339;50.840;4.346;2023-04-20T04:42:09;8.00;99.90
25410;DHT22;13339;50.840;4.346;2023-04-20T04:44:35;8.00;99.90
25410;DHT22;13339;50.840;4.346;2023-04-20T04:47:02;8.00;99.90
25410;DHT22;13339;50.840;4.346;2023-04-20T04:49:27;8.00;99.90
25410;DHT22;13339;50.840;4.346;2023-04-20T04:51:54;8.00;99.90
25410;DHT22;13339;50.840;4.346;2023-04-20T04:54:20;8.10;99.90
25410;DHT22;13339;50.840;4.346;2023-04-20T04:56:45;8.00;99.90
25410;DHT22;13339;50.840;4.346;2023-04-20T04:59:11;8.00;99.90
25410;DHT22;13339;50.840;4.346;2023-04-20T05:01:36;8.10;99.90
25410;DHT22;13339;50.840;4.346;2023-04-20T05:04:02;8.00;99.90
25410;DHT22;13339;50.840;4.346;2023-04-20T05:06:27;7.90;99.90
25410;DHT22;13339;50.840;4.346;2023-04-20T05:08:53;7.80;99.90
25410;DHT22;13339;50.840;4.346;2023-04-20T05:11:18;7.80;99.90
25410;DHT22;13339;50.840;4.346;2023-04-20T05:13:44;7.70;99.90
25410;DHT22;13339;50.840;4.346;2023-04-20T05:16:10;7.80;99.90
25410;DHT22;13339;50.840;4.346;2023-04-20T05:18:35;7.90;99.90
25410;DHT22;13339;50.840;4.346;2023-04-20T05:21:01;8.00;99.90
25410;DHT22;13339;50.840;4.346;2023-04-20T05:23:27;8.00;99.90
25410;DHT22;13339;50.840;4.346;2023-04-20T05:25:52;8.00;99.90
25410;DHT22;13339;50.840;4.346;2023-04-20T05:28:18;7.90;99.90
25410;DHT22;13339;50.840;4.346;2023-04-20T05:30:43;7.90;99.90
25410;DHT22;13339;50.840;4.346;2023-04-20T05:33:09;7.90;99.90
25410;DHT22;13339;50.840;4.346;2023-04-20T05:35:35;7.90;99.90
25410;DHT22;13339;50.840;4.346;2023-04-20T05:38:00;7.90;99.90
25410;DHT22;13339;50.840;4.346;2023-04-20T05:40:30;7.90;99.90
25410;DHT22;13339;50.840;4.346;2023-04-20T05:42:56;8.00;99.90
25410;DHT22;13339;50.840;4.346;2023-04-20T05:45:21;8.10;99.90
25410;DHT22;13339;50.840;4.346;2023-04-20T05:47:56;8.30;99.90
25410;DHT22;13339;50.840;4.346;2023-04-20T05:50:23;8.40;99.90
25410;DHT22;13339;50.840;4.346;2023-04-20T05:52:49;8.40;99.90
25410;DHT22;13339;50.840;4.346;2023-04-20T05:55:15;8.30;99.90
25410;DHT22;13339;50.840;4.346;2023-04-20T05:57:41;8.40;99.90
25410;DHT22;13339;50.840;4.346;2023-04-20T06:00:10;8.60;99.90
25410;DHT22;13339;50.840;4.346;2023-04-20T06:02:36;8.70;99.90
25410;DHT22;13339;50.840;4.346;2023-04-20T06:05:02;8.80;99.90
25410;DHT22;13339;50.840;4.346;2023-04-20T06:07:27;8.80;99.90
25410;DHT22;13339;50.840;4.346;2023-04-20T06:09:53;8.70;99.90
25410;DHT22;13339;50.840;4.346;2023-04-20T06:12:18;8.60;99.90
25410;DHT22;13339;50.840;4.346;2023-04-20T06:14:44;8.70;99.90
25410;DHT22;13339;50.840;4.346;2023-04-20T06:17:10;8.80;99.90
25410;DHT22;13339;50.840;4.346;2023-04-20T06:19:35;8.80;99.90
25410;DHT22;13339;50.840;4.346;2023-04-20T06:22:05;9.00;99.90
25410;DHT22;13339;50.840;4.346;2023-04-20T06:24:31;8.90;99.90
25410;DHT22;13339;50.840;4.346;2023-04-20T06:26:57;8.90;99.90
25410;DHT22;13339;50.840;4.346;2023-04-20T06:29:23;9.00;99.90
25410;DHT22;13339;50.840;4.346;2023-04-20T06:31:48;8.80;99.90
25410;DHT22;13339;50.840;4.346;2023-04-20T06:34:14;8.70;99.90
25410;DHT22;13339;50.840;4.346;2023-04-20T06:36:43;8.80;99.90
25410;DHT22;13339;50.840;4.346;2023-04-20T06:39:09;8.90;99.90
25410;DHT22;13339;50.840;4.346;2023-04-20T06:41:36;9.10;99.90
25410;DHT22;13339;50.840;4.346;2023-04-20T06:44:03;9.10;99.90
25410;DHT22;13339;50.840;4.346;2023-04-20T06:46:28;9.20;99.90
25410;DHT22;13339;50.840;4.346;2023-04-20T06:48:55;9.00;99.90
25410;DHT22;13339;50.840;4.346;2023-04-20T06:51:20;9.00;99.90
25410;DHT22;13339;50.840;4.346;2023-04-20T06:53:46;9.10;99.90
25410;DHT22;13339;50.840;4.346;2023-04-20T06:56:11;9.00;99.90
25410;DHT22;13339;50.840;4.346;2023-04-20T06:58:37;9.00;99.90
25410;DHT22;13339;50.840;4.346;2023-04-20T07:01:03;9.10;99.90
25410;DHT22;13339;50.840;4.346;2023-04-20T07:03:28;9.10;99.90
25410;DHT22;13339;50.840;4.346;2023-04-20T07:05:54;9.30;99.90
25410;DHT22;13339;50.840;4.346;2023-04-20T07:08:20;9.50;99.90
25410;DHT22;13339;50.840;4.346;2023-04-20T07:10:45;9.60;99.90
25410;DHT22;13339;50.840;4.346;2023-04-20T07:13:11;9.50;99.90
25410;DHT22;13339;50.840;4.346;2023-04-20T07:15:37;9.20;99.90
25410;DHT22;13339;50.840;4.346;2023-04-20T07:18:02;9.30;99.90
25410;DHT22;13339;50.840;4.346;2023-04-20T07:20:28;9.30;99.90
25410;DHT22;13339;50.840;4.346;2023-04-20T07:22:53;9.40;99.90
25410;DHT22;13339;50.840;4.346;2023-04-20T07:25:19;9.40;99.90
25410;DHT22;13339;50.840;4.346;2023-04-20T07:27:45;9.30;99.90
25410;DHT22;13339;50.840;4.346;2023-04-20T07:30:11;9.20;99.90
25410;DHT22;13339;50.840;4.346;2023-04-20T07:32:37;9.30;99.90
25410;DHT22;13339;50.840;4.346;2023-04-20T07:35:04;9.20;99.90
25410;DHT22;13339;50.840;4.346;2023-04-20T07:37:30;9.30;99.90
25410;DHT22;13339;50.840;4.346;2023-04-20T07:39:58;9.30;99.90
25410;DHT22;13339;50.840;4.346;2023-04-20T07:42:24;9.20;99.90
25410;DHT22;13339;50.840;4.346;2023-04-20T07:44:50;9.30;99.90
25410;DHT22;13339;50.840;4.346;2023-04-20T07:47:16;9.30;99.90
25410;DHT22;13339;50.840;4.346;2023-04-20T07:49:42;9.60;99.90
25410;DHT22;13339;50.840;4.346;2023-04-20T07:52:08;9.60;99.90
25410;DHT22;13339;50.840;4.346;2023-04-20T07:54:33;9.80;99.90
25410;DHT22;13339;50.840;4.346;2023-04-20T07:56:59;9.60;99.90
25410;DHT22;13339;50.840;4.346;2023-04-20T07:59:26;9.60;99.90
25410;DHT22;13339;50.840;4.346;2023-04-20T08:01:51;9.90;99.90
25410;DHT22;13339;50.840;4.346;2023-04-20T08:04:17;10.20;99.90
25410;DHT22;13339;50.840;4.346;2023-04-20T08:06:42;10.20;99.90
25410;DHT22;13339;50.840;4.346;2023-04-20T08:09:08;10.20;99.90
25410;DHT22;13339;50.840;4.346;2023-04-20T08:11:34;10.20;99.90
25410;DHT22;13339;50.840;4.346;2023-04-20T08:14:00;10.10;99.90
25410;DHT22;13339;50.840;4.346;2023-04-20T08:16:26;10.00;99.90
25410;DHT22;13339;50.840;4.346;2023-04-20T08:18:51;10.10;99.90
25410;DHT22;13339;50.840;4.346;2023-04-20T08:21:17;9.90;99.90
25410;DHT22;13339;50.840;4.346;2023-04-20T08:23:42;10.00;99.90
25410;DHT22;13339;50.840;4.346;2023-04-20T08:26:09;10.00;99.90
25410;DHT22;13339;50.840;4.346;2023-04-20T08:28:38;9.70;99.90
25410;DHT22;13339;50.840;4.346;2023-04-20T08:31:05;9.50;99.90
25410;DHT22;13339;50.840;4.346;2023-04-20T08:33:31;9.40;99.90
25410;DHT22;13339;50.840;4.346;2023-04-20T08:35:57;9.60;99.90
25410;DHT22;13339;50.840;4.346;2023-04-20T08:38:22;9.50;99.90
25410;DHT22;13339;50.840;4.346;2023-04-20T08:40:49;9.50;99.90
25410;DHT22;13339;50.840;4.346;2023-04-20T08:43:15;9.30;99.90
25410;DHT22;13339;50.840;4.346;2023-04-20T08:45:43;9.40;99.90
25410;DHT22;13339;50.840;4.346;2023-04-20T08:48:14;9.50;99.90
25410;DHT22;13339;50.840;4.346;2023-04-20T08:50:41;9.80;99.90
25410;DHT22;13339;50.840;4.346;2023-04-20T08:53:07;9.80;99.90
25410;DHT22;13339;50.840;4.346;2023-04-20T08:55:34;9.70;99.90
25410;DHT22;13339;50.840;4.346;2023-04-20T08:57:59;9.80;99.90
25410;DHT22;13339;50.840;4.346;2023-04-20T09:00:25;9.90;99.90
25410;DHT22;13339;50.840;4.346;2023-04-20T09:02:53;10.00;99.90
25410;DHT22;13339;50.840;4.346;2023-04-20T09:05:26;10.00;99.90
25410;DHT22;13339;50.840;4.346;2023-04-20T09:07:57;9.90;99.90
25410;DHT22;13339;50.840;4.346;2023-04-20T09:10:23;10.10;99.90
25410;DHT22;13339;50.840;4.346;2023-04-20T09:12:50;10.30;99.90
25410;DHT22;13339;50.840;4.346;2023-04-20T09:15:26;10.60;99.90
25410;DHT22;13339;50.840;4.346;2023-04-20T09:17:52;10.60;99.90
25410;DHT22;13339;50.840;4.346;2023-04-20T09:20:47;10.30;99.90
25410;DHT22;13339;50.840;4.346;2023-04-20T09:23:14;10.40;99.90
25410;DHT22;13339;50.840;4.346;2023-04-20T09:25:40;10.20;99.90
25410;DHT22;13339;50.840;4.346;2023-04-20T09:28:08;10.10;99.90
25410;DHT22;13339;50.840;4.346;2023-04-20T09:30:42;10.30;99.90
25410;DHT22;13339;50.840;4.346;2023-04-20T09:33:08;10.50;99.90
25410;DHT22;13339;50.840;4.346;2023-04-20T09:35:37;10.80;99.90
25410;DHT22;13339;50.840;4.346;2023-04-20T09:38:04;10.90;99.90
25410;DHT22;13339;50.840;4.346;2023-04-20T09:40:31;10.90;99.90
25410;DHT22;13339;50.840;4.346;2023-04-20T09:43:06;10.80;99.90
25410;DHT22;13339;50.840;4.346;2023-04-20T09:45:33;10.80;99.90
25410;DHT22;13339;50.840;4.346;2023-04-20T09:48:01;10.70;99.90
25410;DHT22;13339;50.840;4.346;2023-04-20T09:50:29;10.80;99.90
25410;DHT22;13339;50.840;4.346;2023-04-20T09:52:56;11.20;99.90
25410;DHT22;13339;50.840;4.346;2023-04-20T09:55:22;11.50;99.90
25410;DHT22;13339;50.840;4.346;2023-04-20T09:57:51;11.40;99.90
25410;DHT22;13339;50.840;4.346;2023-04-20T10:00:18;10.90;99.90
25410;DHT22;13339;50.840;4.346;2023-04-20T10:02:46;10.80;99.90
25410;DHT22;13339;50.840;4.346;2023-04-20T10:05:12;10.90;99.90
25410;DHT22;13339;50.840;4.346;2023-04-20T10:07:38;10.80;99.90
25410;DHT22;13339;50.840;4.346;2023-04-20T10:12:30;11.00;99.90
25410;DHT22;13339;50.840;4.346;2023-04-20T10:14:56;11.00;99.90
25410;DHT22;13339;50.840;4.346;2023-04-20T10:17:31;10.80;99.90
25410;DHT22;13339;50.840;4.346;2023-04-20T10:19:58;11.00;99.90
25410;DHT22;13339;50.840;4.346;2023-04-20T10:22:31;11.00;99.90
25410;DHT22;13339;50.840;4.346;2023-04-20T10:24:58;11.20;99.90
25410;DHT22;13339;50.840;4.346;2023-04-20T10:27:25;11.50;99.90
25410;DHT22;13339;50.840;4.346;2023-04-20T10:29:51;11.80;99.90
25410;DHT22;13339;50.840;4.346;2023-04-20T10:32:28;11.70;99.90
25410;DHT22;13339;50.840;4.346;2023-04-20T10:35:04;11.60;99.90
25410;DHT22;13339;50.840;4.346;2023-04-20T10:37:31;11.60;99.90
25410;DHT22;13339;50.840;4.346;2023-04-20T10:39:56;11.50;99.90
25410;DHT22;13339;50.840;4.346;2023-04-20T10:42:22;11.60;99.90
25410;DHT22;13339;50.840;4.346;2023-04-20T10:44:53;11.60;99.90
25410;DHT22;13339;50.840;4.346;2023-04-20T10:47:29;11.50;99.90
25410;DHT22;13339;50.840;4.346;2023-04-20T10:50:14;11.60;99.90
25410;DHT22;13339;50.840;4.346;2023-04-20T10:52:42;11.80;99.90
25410;DHT22;13339;50.840;4.346;2023-04-20T10:55:18;11.40;99.90
25410;DHT22;13339;50.840;4.346;2023-04-20T10:57:44;11.10;99.90
25410;DHT22;13339;50.840;4.346;2023-04-20T11:00:18;10.90;99.90
25410;DHT22;13339;50.840;4.346;2023-04-20T11:02:48;10.90;99.90
25410;DHT22;13339;50.840;4.346;2023-04-20T11:05:15;11.00;99.90
25410;DHT22;13339;50.840;4.346;2023-04-20T11:07:56;11.00;99.90
25410;DHT22;13339;50.840;4.346;2023-04-20T11:10:37;10.70;99.90
25410;DHT22;13339;50.840;4.346;2023-04-20T11:13:03;10.80;99.90
25410;DHT22;13339;50.840;4.346;2023-04-20T11:15:32;10.90;99.90
25410;DHT22;13339;50.840;4.346;2023-04-20T11:18:08;11.00;99.90
25410;DHT22;13339;50.840;4.346;2023-04-20T11:20:35;11.20;99.90
25410;DHT22;13339;50.840;4.346;2023-04-20T11:23:00;11.30;99.90
25410;DHT22;13339;50.840;4.346;2023-04-20T11:25:29;11.50;99.90
25410;DHT22;13339;50.840;4.346;2023-04-20T11:28:04;11.60;99.90
25410;DHT22;13339;50.840;4.346;2023-04-20T11:30:41;11.50;99.90
25410;DHT22;13339;50.840;4.346;2023-04-20T11:33:08;11.10;99.90
25410;DHT22;13339;50.840;4.346;2023-04-20T11:35:39;11.20;99.90
25410;DHT22;13339;50.840;4.346;2023-04-20T11:38:05;11.10;99.90
25410;DHT22;13339;50.840;4.346;2023-04-20T11:40:30;11.10;99.90
25410;DHT22;13339;50.840;4.346;2023-04-20T11:42:57;11.10;99.90
25410;DHT22;13339;50.840;4.346;2023-04-20T11:45:22;11.20;99.90
25410;DHT22;13339;50.840;4.346;2023-04-20T11:47:48;11.10;99.90
25410;DHT22;13339;50.840;4.346;2023-04-20T11:50:15;10.90;99.90
25410;DHT22;13339;50.840;4.346;2023-04-20T11:52:40;10.90;99.90
25410;DHT22;13339;50.840;4.346;2023-04-20T11:55:06;10.80;99.90
25410;DHT22;13339;50.840;4.346;2023-04-20T11:57:32;10.80;99.90
25410;DHT22;13339;50.840;4.346;2023-04-20T11:59:58;10.90;99.90
25410;DHT22;13339;50.840;4.346;2023-04-20T12:02:25;11.00;99.90
25410;DHT22;13339;50.840;4.346;2023-04-20T12:04:50;10.90;99.90
25410;DHT22;13339;50.840;4.346;2023-04-20T12:07:16;11.30;99.90
25410;DHT22;13339;50.840;4.346;2023-04-20T12:09:42;11.60;99.90
25410;DHT22;13339;50.840;4.346;2023-04-20T12:12:09;11.70;99.90
25410;DHT22;13339;50.840;4.346;2023-04-20T12:14:34;11.90;99.90
25410;DHT22;13339;50.840;4.346;2023-04-20T12:17:01;12.10;99.90
25410;DHT22;13339;50.840;4.346;2023-04-20T12:19:26;12.20;99.90
25410;DHT22;13339;50.840;4.346;2023-04-20T12:21:52;12.40;99.90
25410;DHT22;13339;50.840;4.346;2023-04-20T12:24:18;12.30;99.90
25410;DHT22;13339;50.840;4.346;2023-04-20T12:26:43;12.30;99.90
25410;DHT22;13339;50.840;4.346;2023-04-20T12:29:09;12.30;99.90
25410;DHT22;13339;50.840;4.346;2023-04-20T12:31:34;12.50;99.90
25410;DHT22;13339;50.840;4.346;2023-04-20T12:34:01;12.40;99.90
25410;DHT22;13339;50.840;4.346;2023-04-20T12:36:26;12.40;99.90
25410;DHT22;13339;50.840;4.346;2023-04-20T12:38:52;12.30;99.90
25410;DHT22;13339;50.840;4.346;2023-04-20T12:41:20;12.30;99.90
25410;DHT22;13339;50.840;4.346;2023-04-20T12:43:50;12.30;99.90
25410;DHT22;13339;50.840;4.346;2023-04-20T12:46:16;12.20;99.90
25410;DHT22;13339;50.840;4.346;2023-04-20T12:48:42;12.30;99.90
25410;DHT22;13339;50.840;4.346;2023-04-20T12:51:10;12.40;99.90
25410;DHT22;13339;50.840;4.346;2023-04-20T12:53:36;12.50;99.90
25410;DHT22;13339;50.840;4.346;2023-04-20T12:56:01;12.40;99.90
25410;DHT22;13339;50.840;4.346;2023-04-20T12:58:27;12.70;99.90
25410;DHT22;13339;50.840;4.346;2023-04-20T13:00:53;12.90;99.90
25410;DHT22;13339;50.840;4.346;2023-04-20T13:03:18;13.30;99.90
25410;DHT22;13339;50.840;4.346;2023-04-20T13:05:44;13.50;99.90
25410;DHT22;13339;50.840;4.346;2023-04-20T13:08:10;13.70;99.90
25410;DHT22;13339;50.840;4.346;2023-04-20T13:10:38;13.80;99.90
25410;DHT22;13339;50.840;4.346;2023-04-20T13:13:04;13.50;99.90
25410;DHT22;13339;50.840;4.346;2023-04-20T13:15:30;12.90;99.90
25410;DHT22;13339;50.840;4.346;2023-04-20T13:17:56;12.80;99.90
25410;DHT22;13339;50.840;4.346;2023-04-20T13:20:22;12.90;99.90
25410;DHT22;13339;50.840;4.346;2023-04-20T13:22:57;13.10;99.90
25410;DHT22;13339;50.840;4.346;2023-04-20T13:25:24;13.10;99.90
25410;DHT22;13339;50.840;4.346;2023-04-20T13:27:52;12.80;99.90
25410;DHT22;13339;50.840;4.346;2023-04-20T13:30:18;12.60;99.90
25410;DHT22;13339;50.840;4.346;2023-04-20T13:32:44;12.10;99.90
25410;DHT22;13339;50.840;4.346;2023-04-20T13:35:10;11.90;99.90
25410;DHT22;13339;50.840;4.346;2023-04-20T13:37:38;11.90;99.90
25410;DHT22;13339;50.840;4.346;2023-04-20T13:40:04;11.60;99.90
25410;DHT22;13339;50.840;4.346;2023-04-20T13:42:31;11.40;99.90
25410;DHT22;13339;50.840;4.346;2023-04-20T13:44:56;11.10;99.90
25410;DHT22;13339;50.840;4.346;2023-04-20T13:47:22;10.70;99.90
25410;DHT22;13339;50.840;4.346;2023-04-20T13:49:48;10.30;99.90
25410;DHT22;13339;50.840;4.346;2023-04-20T13:52:14;10.10;99.90
25410;DHT22;13339;50.840;4.346;2023-04-20T13:54:40;9.90;99.90
25410;DHT22;13339;50.840;4.346;2023-04-20T13:57:05;9.90;99.90
25410;DHT22;13339;50.840;4.346;2023-04-20T13:59:31;10.00;99.90
25410;DHT22;13339;50.840;4.346;2023-04-20T14:01:57;10.10;99.90
25410;DHT22;13339;50.840;4.346;2023-04-20T14:04:22;10.20;99.90
25410;DHT22;13339;50.840;4.346;2023-04-20T14:06:48;10.30;99.90
25410;DHT22;13339;50.840;4.346;2023-04-20T14:09:14;10.50;99.90
25410;DHT22;13339;50.840;4.346;2023-04-20T14:11:39;10.50;99.90
25410;DHT22;13339;50.840;4.346;2023-04-20T14:14:05;10.60;99.90
25410;DHT22;13339;50.840;4.346;2023-04-20T14:16:31;10.40;99.90
25410;DHT22;13339;50.840;4.346;2023-04-20T14:18:56;10.20;99.90
25410;DHT22;13339;50.840;4.346;2023-04-20T14:21:22;10.20;99.90
25410;DHT22;13339;50.840;4.346;2023-04-20T14:23:47;10.30;99.90
25410;DHT22;13339;50.840;4.346;2023-04-20T14:26:18;10.40;99.90
25410;DHT22;13339;50.840;4.346;2023-04-20T14:28:44;10.60;99.90
25410;DHT22;13339;50.840;4.346;2023-04-20T14:31:11;10.40;99.90
25410;DHT22;13339;50.840;4.346;2023-04-20T14:33:37;10.70;99.90
25410;DHT22;13339;50.840;4.346;2023-04-20T14:36:03;10.60;99.90
25410;DHT22;13339;50.840;4.346;2023-04-20T14:38:28;10.70;99.90
25410;DHT22;13339;50.840;4.346;2023-04-20T14:40:54;10.60;99.90
25410;DHT22;13339;50.840;4.346;2023-04-20T14:43:19;10.90;99.90
25410;DHT22;13339;50.840;4.346;2023-04-20T14:45:45;10.70;99.90
25410;DHT22;13339;50.840;4.346;2023-04-20T14:48:11;10.80;99.90
25410;DHT22;13339;50.840;4.346;2023-04-20T14:50:37;11.00;99.90
25410;DHT22;13339;50.840;4.346;2023-04-20T14:53:03;11.30;99.90
25410;DHT22;13339;50.840;4.346;2023-04-20T14:55:28;11.20;99.90
25410;DHT22;13339;50.840;4.346;2023-04-20T14:57:55;11.30;99.90
25410;DHT22;13339;50.840;4.346;2023-04-20T15:00:25;11.50;99.90
25410;DHT22;13339;50.840;4.346;2023-04-20T15:02:52;11.60;99.90
25410;DHT22;13339;50.840;4.346;2023-04-20T15:05:21;11.40;99.90
25410;DHT22;13339;50.840;4.346;2023-04-20T15:07:47;11.40;99.90
25410;DHT22;13339;50.840;4.346;2023-04-20T15:10:16;11.50;99.90
25410;DHT22;13339;50.840;4.346;2023-04-20T15:12:42;11.20;99.90
25410;DHT22;13339;50.840;4.346;2023-04-20T15:15:08;11.20;99.90
25410;DHT22;13339;50.840;4.346;2023-04-20T15:17:34;11.50;99.90
25410;DHT22;13339;50.840;4.346;2023-04-20T15:20:01;11.70;99.90
25410;DHT22;13339;50.840;4.346;2023-04-20T15:22:26;11.80;99.90
25410;DHT22;13339;50.840;4.346;2023-04-20T15:24:52;11.80;99.90
25410;DHT22;13339;50.840;4.346;2023-04-20T15:27:18;11.70;99.90
25410;DHT22;13339;50.840;4.346;2023-04-20T15:29:43;11.70;99.90
25410;DHT22;13339;50.840;4.346;2023-04-20T15:32:09;11.70;99.90
25410;DHT22;13339;50.840;4.346;2023-04-20T15:34:35;11.60;99.90
25410;DHT22;13339;50.840;4.346;2023-04-20T15:37:03;11.70;99.90